Time;durP1;ratioP1;P1;durP2;ratioP2;P2;SDS_P1;SDS_P2;PMS_P1;PMS_P2;Temp;Humidity;BMP_temperature;BMP_pressure;BME280_temperature;BME280_humidity;BME280_pressure;Samples;Min_cycle;Max_cycle;Signal;HPM_P1;HPM_P2
2021/10/27 00:00:50;;;;;;;7.47;3.10;;;8.30;99.10;;;;;;5054074;28;20044;-79
2021/10/27 00:03:16;;;;;;;4.72;1.92;;;8.40;98.30;;;;;;5053599;28;20035;-79
2021/10/27 00:05:42;;;;;;;8.32;2.70;;;8.80;97.60;;;;;;5053695;28;20426;-79
2021/10/27 00:08:08;;;;;;;4.53;2.33;;;8.90;97.40;;;;;;5054187;28;20213;-79
2021/10/27 00:10:34;;;;;;;6.65;2.95;;;9.00;97.10;;;;;;5053314;28;20056;-79
2021/10/27 00:13:00;;;;;;;5.82;2.92;;;8.70;97.90;;;;;;5053454;28;20032;-79
2021/10/27 00:15:25;;;;;;;6.57;3.38;;;8.40;98.50;;;;;;5053646;28;20522;-79
2021/10/27 00:17:51;;;;;;;9.27;3.60;;;8.50;98.60;;;;;;5054002;28;20033;-79
2021/10/27 00:20:17;;;;;;;6.45;3.05;;;8.50;98.70;;;;;;5050092;28;20029;-79
2021/10/27 00:22:43;;;;;;;4.75;2.65;;;8.30;98.80;;;;;;5052492;28;20401;-79
2021/10/27 00:25:10;;;;;;;5.25;2.53;;;8.00;99.40;;;;;;5051264;28;20223;-79
2021/10/27 00:27:36;;;;;;;6.20;2.88;;;8.00;99.50;;;;;;5052013;28;20025;-79
2021/10/27 00:30:02;;;;;;;8.35;2.28;;;7.90;99.50;;;;;;5051679;28;20051;-79
2021/10/27 00:32:28;;;;;;;6.10;2.45;;;7.80;99.60;;;;;;5051301;28;20035;-79
2021/10/27 00:34:54;;;;;;;7.40;3.03;;;7.90;99.20;;;;;;5050791;28;20029;-79
2021/10/27 00:37:20;;;;;;;6.82;2.10;;;7.90;99.20;;;;;;5052417;28;20510;-79
2021/10/27 00:39:49;;;;;;;7.40;2.47;;;7.90;98.90;;;;;;5053167;28;20057;-79
2021/10/27 00:42:15;;;;;;;7.57;2.83;;;7.90;98.90;;;;;;5053698;28;20498;-79
2021/10/27 00:44:41;;;;;;;6.82;2.80;;;7.80;99.10;;;;;;5052359;28;20029;-79
2021/10/27 00:47:13;;;;;;;10.27;3.25;;;7.50;99.70;;;;;;5052534;28;20033;-79
2021/10/27 00:49:41;;;;;;;5.10;2.72;;;7.70;99.50;;;;;;5053651;28;20036;-79
2021/10/27 00:52:11;;;;;;;5.75;2.85;;;7.80;99.20;;;;;;5053145;28;20033;-79
2021/10/27 00:54:39;;;;;;;4.72;2.33;;;7.70;99.30;;;;;;5052783;28;20380;-79
2021/10/27 00:57:05;;;;;;;5.18;2.05;;;7.60;99.30;;;;;;5052056;28;20040;-79
2021/10/27 00:59:35;;;;;;;5.20;2.10;;;7.60;99.40;;;;;;5053337;28;20036;-79
2021/10/27 01:02:01;;;;;;;8.80;2.80;;;7.50;99.50;;;;;;5052671;28;20135;-79
2021/10/27 01:04:26;;;;;;;4.53;2.25;;;7.40;99.90;;;;;;5052757;28;20108;-79
2021/10/27 01:06:52;;;;;;;5.18;2.45;;;7.10;99.90;;;;;;5051998;28;20029;-79
2021/10/27 01:09:19;;;;;;;6.85;2.22;;;7.10;99.90;;;;;;5053055;28;20052;-79
2021/10/27 01:11:45;;;;;;;5.88;1.88;;;7.20;99.90;;;;;;5052931;28;20024;-78
2021/10/27 01:14:11;;;;;;;4.40;2.25;;;7.30;99.90;;;;;;5052282;28;20943;-79
2021/10/27 01:16:37;;;;;;;7.57;2.42;;;7.40;99.70;;;;;;5052187;28;20029;-79
2021/10/27 01:19:05;;;;;;;4.15;1.67;;;7.40;99.70;;;;;;5047985;28;20040;-78
2021/10/27 01:21:31;;;;;;;5.50;2.05;;;7.40;99.70;;;;;;5049729;28;20029;-79
2021/10/27 01:23:58;;;;;;;5.40;2.42;;;7.40;99.60;;;;;;5051076;28;20039;-80
2021/10/27 01:26:24;;;;;;;4.45;2.00;;;7.30;99.90;;;;;;5049903;28;20525;-79
2021/10/27 01:28:50;;;;;;;4.35;2.17;;;7.30;99.70;;;;;;5050732;28;20029;-78
2021/10/27 01:31:16;;;;;;;4.45;1.90;;;7.60;98.90;;;;;;5050038;28;20514;-78
2021/10/27 01:33:43;;;;;;;4.90;1.90;;;7.90;98.40;;;;;;5050658;28;20060;-79
2021/10/27 01:36:10;;;;;;;4.72;2.33;;;7.80;98.60;;;;;;5049857;28;20041;-80
2021/10/27 01:38:36;;;;;;;4.70;2.47;;;7.50;99.50;;;;;;5031746;28;20060;-79
2021/10/27 01:41:03;;;;;;;5.75;2.38;;;7.30;99.90;;;;;;5029535;28;20368;-79
2021/10/27 01:43:29;;;;;;;5.05;2.80;;;7.20;99.90;;;;;;5052579;28;20021;-79
2021/10/27 01:45:55;;;;;;;5.07;2.65;;;7.30;99.90;;;;;;5051528;28;20048;-79
2021/10/27 01:48:21;;;;;;;4.53;2.03;;;7.30;99.90;;;;;;5052089;28;20029;-79
2021/10/27 01:50:47;;;;;;;4.97;2.30;;;7.10;99.90;;;;;;5052149;28;20479;-78
2021/10/27 01:53:14;;;;;;;5.40;2.17;;;6.90;99.90;;;;;;5052382;28;20029;-78
2021/10/27 01:55:41;;;;;;;8.10;2.60;;;6.80;99.90;;;;;;5051701;28;20025;-79
2021/10/27 01:58:07;;;;;;;7.53;2.20;;;6.90;99.90;;;;;;5052325;28;20025;-78
2021/10/27 02:00:33;;;;;;;4.22;1.88;;;6.90;99.90;;;;;;5052740;28;20104;-79
2021/10/27 02:02:58;;;;;;;5.45;2.63;;;7.10;99.90;;;;;;5051518;28;20116;-78
2021/10/27 02:05:24;;;;;;;5.22;2.60;;;7.30;99.90;;;;;;5051177;28;20044;-79
2021/10/27 02:10:34;;;;;;;7.57;2.80;;;7.40;99.80;;;;;;5046215;28;20746;-78
2021/10/27 02:13:00;;;;;;;5.32;2.20;;;7.50;99.60;;;;;;5051281;28;20021;-79
2021/10/27 02:15:25;;;;;;;5.13;2.10;;;7.40;99.60;;;;;;5052060;28;20406;-78
2021/10/27 02:17:51;;;;;;;6.72;2.88;;;7.30;99.90;;;;;;5050775;28;20025;-78
2021/10/27 02:20:17;;;;;;;4.43;2.00;;;7.30;99.80;;;;;;5043887;28;20104;-78
2021/10/27 02:22:42;;;;;;;4.68;2.47;;;7.20;99.90;;;;;;5036353;28;20548;-78
2021/10/27 02:25:08;;;;;;;5.00;2.00;;;7.10;99.90;;;;;;5049673;28;20055;-78
2021/10/27 02:27:34;;;;;;;9.07;2.30;;;7.10;99.90;;;;;;5048369;28;20134;-78
2021/10/27 02:30:00;;;;;;;5.78;1.85;;;6.80;99.90;;;;;;5049567;28;20386;-79
2021/10/27 02:32:25;;;;;;;7.78;2.05;;;6.70;99.90;;;;;;5049211;28;20024;-78
2021/10/27 02:34:51;;;;;;;7.25;2.70;;;6.70;99.90;;;;;;5049345;28;20028;-79
2021/10/27 02:37:17;;;;;;;4.43;2.78;;;6.70;99.90;;;;;;5048508;28;20068;-79
2021/10/27 02:39:43;;;;;;;5.50;2.08;;;6.70;99.90;;;;;;5049955;28;20395;-78
2021/10/27 02:42:09;;;;;;;6.28;2.45;;;6.70;99.90;;;;;;5051167;28;20617;-78
2021/10/27 02:44:36;;;;;;;5.13;2.40;;;6.80;99.90;;;;;;5051592;28;20067;-79
2021/10/27 02:47:02;;;;;;;4.57;1.77;;;6.90;99.90;;;;;;5050729;28;20067;-79
2021/10/27 02:49:28;;;;;;;7.50;3.30;;;6.80;99.90;;;;;;5051031;28;20024;-78
2021/10/27 02:51:54;;;;;;;5.13;2.45;;;6.90;99.90;;;;;;5029780;28;20025;-79
2021/10/27 02:54:20;;;;;;;10.45;2.42;;;6.70;99.90;;;;;;5050460;28;20044;-78
2021/10/27 02:56:46;;;;;;;5.28;2.35;;;6.70;99.90;;;;;;5051208;28;20025;-78
2021/10/27 02:59:12;;;;;;;5.80;2.55;;;6.70;99.90;;;;;;5049857;28;20025;-78
2021/10/27 03:01:37;;;;;;;6.72;2.20;;;6.90;99.90;;;;;;5050063;28;20026;-78
2021/10/27 03:04:03;;;;;;;6.22;2.78;;;6.90;99.90;;;;;;5030794;28;20114;-77
2021/10/27 03:06:29;;;;;;;8.70;3.30;;;6.90;99.90;;;;;;5023908;28;20033;-77
2021/10/27 03:08:54;;;;;;;7.00;3.53;;;6.80;99.90;;;;;;5037530;28;20033;-77
2021/10/27 03:11:20;;;;;;;5.18;2.58;;;6.60;99.90;;;;;;5042767;28;20029;-78
2021/10/27 03:13:46;;;;;;;4.75;2.53;;;6.50;99.90;;;;;;5043603;28;20036;-78
2021/10/27 03:16:11;;;;;;;6.72;2.53;;;6.60;99.90;;;;;;5042438;28;20025;-77
2021/10/27 03:18:37;;;;;;;5.53;2.90;;;6.40;99.90;;;;;;5042691;28;20104;-78
2021/10/27 03:21:03;;;;;;;6.97;3.30;;;6.60;99.90;;;;;;5026836;28;20379;-77
2021/10/27 03:23:29;;;;;;;4.95;2.72;;;6.90;99.90;;;;;;5049950;28;20052;-77
2021/10/27 03:25:54;;;;;;;5.22;2.40;;;6.70;99.90;;;;;;5049297;28;20040;-77
2021/10/27 03:28:20;;;;;;;6.88;2.72;;;6.70;99.90;;;;;;5031624;28;20037;-77
2021/10/27 03:30:46;;;;;;;5.13;2.30;;;6.80;99.90;;;;;;5048121;28;20475;-77
2021/10/27 03:33:11;;;;;;;6.13;2.33;;;6.80;99.90;;;;;;5048402;28;20021;-78
2021/10/27 03:35:37;;;;;;;6.32;2.33;;;6.80;99.90;;;;;;5048624;28;20752;-77
2021/10/27 03:38:03;;;;;;;5.18;2.33;;;6.80;99.90;;;;;;5028933;28;20028;-77
2021/10/27 03:40:29;;;;;;;5.93;2.47;;;6.80;99.90;;;;;;5040363;28;20029;-77
2021/10/27 03:42:54;;;;;;;5.72;2.53;;;6.80;99.90;;;;;;5049098;28;20029;-78
2021/10/27 03:45:20;;;;;;;5.38;2.45;;;6.80;99.90;;;;;;5050014;28;20490;-77
2021/10/27 03:47:46;;;;;;;6.47;2.22;;;6.90;99.90;;;;;;5049629;28;20036;-77
2021/10/27 03:50:14;;;;;;;4.88;2.70;;;6.50;99.90;;;;;;5049811;28;20056;-77
2021/10/27 03:52:42;;;;;;;4.15;2.35;;;6.30;99.90;;;;;;5049466;28;20584;-76
2021/10/27 03:55:08;;;;;;;5.82;2.65;;;6.20;99.90;;;;;;5049949;28;20029;-78
2021/10/27 03:57:34;;;;;;;4.65;2.15;;;6.30;99.90;;;;;;5049015;28;20025;-77
2021/10/27 04:00:00;;;;;;;6.18;2.60;;;6.40;99.90;;;;;;5045834;28;20036;-77
2021/10/27 04:02:27;;;;;;;4.20;2.10;;;6.60;99.90;;;;;;5046041;28;20033;-78
2021/10/27 04:04:52;;;;;;;6.10;2.50;;;6.60;99.90;;;;;;5046166;28;20029;-77
2021/10/27 04:07:18;;;;;;;6.47;2.65;;;6.60;99.90;;;;;;5046566;28;20036;-77
2021/10/27 04:09:44;;;;;;;4.75;2.45;;;6.80;99.90;;;;;;5045999;28;20083;-77
2021/10/27 04:12:10;;;;;;;6.45;2.72;;;6.60;99.90;;;;;;5046471;28;20095;-77
2021/10/27 04:14:36;;;;;;;4.90;2.33;;;6.50;99.90;;;;;;5046453;28;20083;-77
2021/10/27 04:17:02;;;;;;;5.28;2.38;;;6.50;99.90;;;;;;5046265;28;20112;-77
2021/10/27 04:19:28;;;;;;;5.72;2.47;;;6.10;99.90;;;;;;5045820;28;20082;-78
2021/10/27 04:21:54;;;;;;;4.22;2.22;;;6.10;99.90;;;;;;5039060;28;20595;-77
2021/10/27 04:24:20;;;;;;;2.95;1.80;;;6.20;99.90;;;;;;5046197;28;20789;-77
2021/10/27 04:26:45;;;;;;;5.78;2.30;;;6.00;99.90;;;;;;5045569;28;20051;-76
2021/10/27 04:29:11;;;;;;;4.20;2.50;;;6.00;99.90;;;;;;5043828;28;20029;-77
2021/10/27 04:31:37;;;;;;;4.60;2.67;;;6.00;99.90;;;;;;5043226;28;20570;-77
2021/10/27 04:34:03;;;;;;;5.97;2.47;;;6.20;99.90;;;;;;5044398;28;20017;-77
2021/10/27 04:36:29;;;;;;;5.80;2.67;;;6.30;99.90;;;;;;5044859;28;20037;-77
2021/10/27 04:38:55;;;;;;;4.68;2.10;;;6.40;99.90;;;;;;5044699;28;20124;-77
2021/10/27 04:41:21;;;;;;;4.47;2.20;;;6.60;99.90;;;;;;5044737;28;20029;-77
2021/10/27 04:43:47;;;;;;;8.43;2.75;;;6.60;99.90;;;;;;5046191;28;20033;-78
2021/10/27 04:46:13;;;;;;;6.22;2.50;;;6.40;99.90;;;;;;5045761;28;20033;-77
2021/10/27 04:48:39;;;;;;;5.25;2.67;;;6.40;99.90;;;;;;5044380;28;20086;-78
2021/10/27 04:51:04;;;;;;;6.43;2.50;;;6.50;99.90;;;;;;5045505;28;20108;-77
2021/10/27 04:53:30;;;;;;;4.68;2.47;;;6.50;99.90;;;;;;5046185;28;20565;-77
2021/10/27 04:55:56;;;;;;;5.25;2.22;;;6.40;99.90;;;;;;5045856;28;20036;-78
2021/10/27 04:58:22;;;;;;;5.25;2.28;;;6.40;99.90;;;;;;5045624;28;20052;-77
2021/10/27 05:00:49;;;;;;;5.45;2.80;;;6.30;99.90;;;;;;5044645;28;20025;-78
2021/10/27 05:03:14;;;;;;;6.60;2.63;;;6.30;99.90;;;;;;5045799;28;20099;-77
2021/10/27 05:05:53;;;;;;;7.57;3.20;;;6.20;99.90;;;;;;5045479;28;20120;-77
2021/10/27 05:08:22;;;;;;;6.93;2.03;;;6.30;99.90;;;;;;5044999;28;20086;-77
2021/10/27 05:10:49;;;;;;;7.03;2.60;;;6.30;99.90;;;;;;5044617;28;20136;-78
2021/10/27 05:13:14;;;;;;;5.57;2.47;;;6.30;99.90;;;;;;5045968;28;20087;-76
2021/10/27 05:15:40;;;;;;;4.47;2.60;;;6.20;99.90;;;;;;5044713;28;20032;-78
2021/10/27 05:18:06;;;;;;;5.88;2.50;;;6.30;99.90;;;;;;5044876;28;20028;-78
2021/10/27 05:20:32;;;;;;;7.10;2.58;;;6.20;99.90;;;;;;5045112;28;20033;-77
2021/10/27 05:22:58;;;;;;;3.95;2.00;;;6.00;99.90;;;;;;5043879;28;20468;-77
2021/10/27 05:25:24;;;;;;;7.38;2.78;;;6.20;99.90;;;;;;5045105;28;20048;-77
2021/10/27 05:27:49;;;;;;;4.68;1.95;;;6.30;99.90;;;;;;5044101;28;20277;-78
2021/10/27 05:30:15;;;;;;;4.25;2.30;;;6.10;99.90;;;;;;5043298;28;20454;-78
2021/10/27 05:32:41;;;;;;;6.32;2.33;;;6.20;99.90;;;;;;5050986;28;20370;-76
2021/10/27 05:35:07;;;;;;;3.53;1.98;;;6.20;99.90;;;;;;5043503;28;20119;-77
2021/10/27 05:37:32;;;;;;;4.30;1.88;;;6.00;99.90;;;;;;5044888;28;20423;-77
2021/10/27 05:39:58;;;;;;;5.95;2.67;;;6.00;99.90;;;;;;5050396;28;20036;-73
2021/10/27 05:42:27;;;;;;;7.88;2.28;;;6.10;99.90;;;;;;5044562;28;20591;-73
2021/10/27 05:44:54;;;;;;;5.75;2.58;;;6.20;99.90;;;;;;5045056;28;20032;-73
2021/10/27 05:47:20;;;;;;;4.80;2.65;;;6.10;99.90;;;;;;5044855;28;20032;-73
2021/10/27 05:49:54;;;;;;;4.72;2.25;;;6.00;99.90;;;;;;5044841;28;20090;-73
2021/10/27 05:55:07;;;;;;;6.57;2.00;;;6.00;99.90;;;;;;5044693;28;20266;-73
2021/10/27 05:57:39;;;;;;;6.32;2.20;;;6.10;99.90;;;;;;5027402;28;20380;-72
2021/10/27 06:00:08;;;;;;;6.03;2.72;;;6.10;99.90;;;;;;5045050;28;20025;-72
2021/10/27 06:02:35;;;;;;;5.97;2.25;;;6.10;99.90;;;;;;5044111;28;20105;-73
2021/10/27 06:05:00;;;;;;;6.82;2.33;;;6.00;99.90;;;;;;5044648;28;20051;-73
2021/10/27 06:07:27;;;;;;;6.25;2.60;;;5.90;99.90;;;;;;5043055;28;20387;-73
2021/10/27 06:09:55;;;;;;;7.88;2.20;;;6.10;99.90;;;;;;5044383;28;20049;-73
2021/10/27 06:12:21;;;;;;;5.40;2.95;;;6.20;99.90;;;;;;5044499;28;20658;-73
2021/10/27 06:14:47;;;;;;;6.57;2.88;;;6.20;99.90;;;;;;5044317;28;20040;-74
2021/10/27 06:17:13;;;;;;;5.68;2.97;;;6.10;99.90;;;;;;5044066;28;20512;-73
2021/10/27 06:19:39;;;;;;;6.03;2.45;;;6.00;99.90;;;;;;5044863;28;20125;-73
2021/10/27 06:22:05;;;;;;;7.43;3.22;;;5.90;99.90;;;;;;5044309;28;20028;-74
2021/10/27 06:24:32;;;;;;;5.45;2.47;;;5.80;99.90;;;;;;5042545;28;20082;-73
2021/10/27 06:26:59;;;;;;;6.65;2.90;;;5.90;99.90;;;;;;5044102;28;20040;-73
2021/10/27 06:29:31;;;;;;;6.55;2.97;;;5.80;99.90;;;;;;5042405;28;20467;-73
2021/10/27 06:32:11;;;;;;;4.90;2.80;;;5.70;99.90;;;;;;5041800;28;20043;-73
2021/10/27 06:34:45;;;;;;;7.13;2.80;;;5.70;99.90;;;;;;5020625;28;20047;-73
2021/10/27 06:48:08;;;;;;;4.40;2.20;;;6.30;99.90;;;;;;5043250;28;20095;-73
2021/10/27 06:50:34;;;;;;;5.50;2.28;;;6.50;99.90;;;;;;5043749;28;20021;-73
2021/10/27 06:53:00;;;;;;;6.10;2.50;;;6.70;99.90;;;;;;5021569;28;20048;-73
2021/10/27 06:55:26;;;;;;;5.28;2.63;;;6.60;99.90;;;;;;5023906;28;20109;-73
2021/10/27 06:57:52;;;;;;;9.30;3.13;;;6.60;99.90;;;;;;5023813;28;20514;-73
2021/10/27 07:00:22;;;;;;;6.07;2.28;;;6.60;99.90;;;;;;5042503;28;20168;-73
2021/10/27 07:16:20;;;;;;;5.65;2.97;;;6.30;99.90;;;;;;5043744;28;20533;-73
2021/10/27 07:18:46;;;;;;;5.65;2.35;;;6.10;99.90;;;;;;5043643;28;20025;-73
2021/10/27 07:21:11;;;;;;;6.45;3.33;;;5.90;99.90;;;;;;5042307;28;20032;-73
2021/10/27 07:23:39;;;;;;;4.70;2.83;;;6.10;99.90;;;;;;5042785;28;20020;-73
2021/10/27 07:26:05;;;;;;;5.97;2.13;;;6.20;99.90;;;;;;5040884;28;20033;-73
2021/10/27 07:28:31;;;;;;;6.82;2.28;;;6.50;99.90;;;;;;5042946;28;20036;-73
2021/10/27 07:31:00;;;;;;;7.38;2.83;;;6.60;99.90;;;;;;5041750;28;20572;-73
2021/10/27 07:33:27;;;;;;;7.88;3.03;;;6.70;99.90;;;;;;5041872;28;20044;-74
2021/10/27 07:35:58;;;;;;;50.60;24.42;;;6.70;99.90;;;;;;5042513;28;20096;-73
2021/10/27 07:41:10;;;;;;;13.48;5.35;;;6.60;99.90;;;;;;5042145;28;20048;-77
2021/10/27 07:43:35;;;;;;;9.52;4.28;;;6.30;99.90;;;;;;5042859;28;20216;-77
2021/10/27 07:46:02;;;;;;;5.50;3.00;;;6.20;99.90;;;;;;5026780;28;20506;-77
2021/10/27 07:48:29;;;;;;;7.95;2.97;;;6.10;99.90;;;;;;5044074;28;20029;-77
2021/10/27 07:50:57;;;;;;;4.40;2.20;;;6.30;99.90;;;;;;5043586;28;20483;-77
2021/10/27 07:53:22;;;;;;;4.40;2.45;;;6.50;99.90;;;;;;5043167;28;20111;-77
2021/10/27 07:55:50;;;;;;;5.38;2.38;;;6.70;99.90;;;;;;5043668;28;20609;-77
2021/10/27 07:58:21;;;;;;;4.55;2.67;;;6.80;99.90;;;;;;5044037;28;20033;-77
2021/10/27 08:00:48;;;;;;;4.95;3.00;;;6.70;99.90;;;;;;5026038;28;20033;-78
2021/10/27 08:03:15;;;;;;;6.10;3.35;;;6.80;99.90;;;;;;5043987;28;20458;-77
2021/10/27 08:05:42;;;;;;;8.65;3.72;;;6.70;99.90;;;;;;5043522;28;20094;-77
2021/10/27 08:08:14;;;;;;;11.07;4.70;;;6.50;99.90;;;;;;5046902;28;20028;-76
2021/10/27 08:10:41;;;;;;;6.70;3.28;;;6.40;99.90;;;;;;5047262;28;20123;-77
2021/10/27 08:13:09;;;;;;;7.45;3.10;;;6.40;99.90;;;;;;5029671;28;20542;-77
2021/10/27 08:15:34;;;;;;;11.70;4.25;;;6.50;99.90;;;;;;5047083;28;20083;-77
2021/10/27 08:18:01;;;;;;;6.07;3.88;;;6.50;99.90;;;;;;5047327;28;20032;-77
2021/10/27 08:20:28;;;;;;;8.20;3.75;;;6.40;99.90;;;;;;5046969;28;20078;-76
2021/10/27 08:22:58;;;;;;;8.65;5.22;;;6.30;99.90;;;;;;5047186;28;20031;-77
2021/10/27 08:25:34;;;;;;;14.48;6.05;;;6.20;99.90;;;;;;5039491;28;20298;-77
2021/10/27 08:28:05;;;;;;;9.57;4.88;;;6.20;99.90;;;;;;5027144;28;20107;-77
2021/10/27 08:30:38;;;;;;;8.13;3.53;;;6.20;99.90;;;;;;5031040;28;20060;-78
2021/10/27 08:33:06;;;;;;;17.08;7.53;;;6.30;99.90;;;;;;5047040;28;20031;-76
2021/10/27 08:35:34;;;;;;;7.35;3.67;;;6.40;99.90;;;;;;5047373;28;20025;-76
2021/10/27 08:38:00;;;;;;;9.98;6.10;;;6.50;99.90;;;;;;5047048;28;20086;-77
2021/10/27 08:40:27;;;;;;;7.32;4.10;;;6.70;99.90;;;;;;5046479;28;20453;-77
2021/10/27 08:42:55;;;;;;;6.55;3.70;;;7.00;99.90;;;;;;5046110;28;20040;-77
2021/10/27 08:45:22;;;;;;;12.65;6.53;;;7.10;99.90;;;;;;5046756;28;20037;-77
2021/10/27 08:47:51;;;;;;;7.57;3.72;;;7.30;99.90;;;;;;5028650;28;20771;-77
2021/10/27 08:50:19;;;;;;;5.95;3.40;;;7.40;99.90;;;;;;5046627;28;20375;-77
2021/10/27 08:52:46;;;;;;;11.35;7.72;;;7.60;99.90;;;;;;5046284;28;20410;-77
2021/10/27 08:55:14;;;;;;;5.43;3.30;;;7.70;99.90;;;;;;5046455;28;20087;-76
2021/10/27 08:57:41;;;;;;;5.25;2.70;;;7.80;99.90;;;;;;5046928;28;20025;-77
2021/10/27 09:09:22;;;;;;;6.30;2.75;;;8.30;99.80;;;;;;5046041;28;20037;-77
2021/10/27 09:36:35;;;;;;;5.53;3.25;;;8.90;99.90;;;;;;5043776;28;20132;-78
2021/10/27 09:55:40;;;;;;;9.55;4.57;;;9.60;97.80;;;;;;5044887;28;20661;-77
2021/10/27 10:04:17;;;;;;;15.90;8.23;;;9.80;98.70;;;;;;5044751;28;20131;-77
2021/10/27 10:06:48;;;;;;;23.60;9.98;;;10.00;98.40;;;;;;5044754;28;20036;-77
2021/10/27 10:09:14;;;;;;;20.77;9.23;;;10.20;97.90;;;;;;5022785;28;20057;-77
2021/10/27 10:11:41;;;;;;;11.18;6.22;;;10.30;97.70;;;;;;5025001;28;20425;-77
2021/10/27 10:14:09;;;;;;;7.88;3.47;;;10.30;97.70;;;;;;5024499;28;20036;-78
2021/10/27 10:16:46;;;;;;;5.68;2.65;;;10.30;96.70;;;;;;5024818;28;20040;-77
2021/10/27 10:19:15;;;;;;;5.85;3.10;;;10.30;96.90;;;;;;5033275;28;20394;-77
2021/10/27 10:21:46;;;;;;;9.38;3.22;;;10.30;96.80;;;;;;5044768;28;20036;-78
2021/10/27 10:26:48;;;;;;;6.75;2.67;;;10.40;96.60;;;;;;5040854;28;20041;-77
2021/10/27 10:29:46;;;;;;;5.55;2.88;;;10.40;96.60;;;;;;5042372;28;20032;-77
2021/10/27 10:32:35;;;;;;;9.70;4.60;;;10.50;96.20;;;;;;5044508;28;20086;-77
2021/10/27 10:35:12;;;;;;;6.10;2.67;;;10.80;95.90;;;;;;5024521;28;20033;-77
2021/10/27 10:38:02;;;;;;;10.73;4.70;;;10.80;95.90;;;;;;5023493;28;20022;-77
2021/10/27 10:43:41;;;;;;;18.88;5.25;;;10.80;95.40;;;;;;5042652;28;20563;-77
2021/10/27 10:46:00;;;;;;;4.45;2.22;;;11.00;95.70;;;;;;5039183;28;20048;-77
2021/10/27 10:57:46;;;;;;;6.15;2.80;;;11.40;95.40;;;;;;5044457;28;20137;-77
2021/10/27 11:39:35;;;;;;;6.28;3.03;;;13.00;93.00;;;;;;5026066;28;20063;-77
2021/10/27 11:42:11;;;;;;;16.77;6.35;;;13.00;92.90;;;;;;5034403;28;20402;-77
2021/10/27 11:44:45;;;;;;;12.75;5.90;;;13.20;92.10;;;;;;5050399;28;20017;-77
2021/10/27 11:47:12;;;;;;;8.63;2.95;;;13.30;93.00;;;;;;5050188;28;20110;-77
2021/10/27 11:49:44;;;;;;;6.28;3.20;;;13.20;92.60;;;;;;5050355;28;20036;-77
2021/10/27 11:52:12;;;;;;;8.13;2.80;;;13.20;92.90;;;;;;5049915;28;20553;-78
2021/10/27 11:54:40;;;;;;;5.07;2.42;;;13.10;92.40;;;;;;5050211;28;20066;-77
2021/10/27 11:57:10;;;;;;;5.68;2.95;;;13.10;92.60;;;;;;5050078;28;20025;-78
2021/10/27 11:59:46;;;;;;;5.65;3.17;;;13.30;92.50;;;;;;5049962;28;20071;-77
2021/10/27 12:02:12;;;;;;;21.50;7.70;;;13.50;92.80;;;;;;5049631;28;20029;-78
2021/10/27 12:04:38;;;;;;;8.20;3.75;;;13.50;92.00;;;;;;5050051;28;20032;-78
2021/10/27 12:07:19;;;;;;;18.38;9.05;;;13.60;92.30;;;;;;5049806;28;20029;-78
2021/10/27 12:18:10;;;;;;;20.13;10.25;;;13.90;92.00;;;;;;5031322;28;20041;-78
2021/10/27 12:20:43;;;;;;;24.33;9.65;;;13.90;91.80;;;;;;5049807;28;20032;-78
2021/10/27 12:23:21;;;;;;;15.15;5.70;;;14.00;91.30;;;;;;5049599;28;20171;-78
2021/10/27 12:25:47;;;;;;;16.75;7.40;;;14.00;91.60;;;;;;5031602;28;20040;-78
2021/10/27 12:28:32;;;;;;;6.10;2.88;;;14.00;91.70;;;;;;5047522;28;20025;-79
2021/10/27 12:31:15;;;;;;;3.92;2.28;;;14.10;91.40;;;;;;5046588;28;20057;-78
2021/10/27 12:33:42;;;;;;;6.05;2.58;;;14.00;91.10;;;;;;5048372;28;20017;-78
2021/10/27 12:36:34;;;;;;;6.28;2.40;;;14.10;91.00;;;;;;5046322;28;20033;-78
2021/10/27 12:40:08;;;;;;;6.60;3.13;;;14.10;91.60;;;;;;5045337;28;20035;-78
2021/10/27 12:42:12;;;;;;;6.47;2.55;;;14.30;91.10;;;;;;5030838;28;20029;-78
2021/10/27 12:45:04;;;;;;;7.03;2.67;;;14.10;91.00;;;;;;5044628;28;20025;-78
2021/10/27 12:47:33;;;;;;;7.07;3.28;;;14.10;91.30;;;;;;5041621;28;20045;-78
2021/10/27 12:50:12;;;;;;;5.53;3.05;;;14.20;91.50;;;;;;5045185;28;20040;-78
2021/10/27 12:52:58;;;;;;;5.22;2.65;;;14.00;90.90;;;;;;5044360;28;20025;-78
2021/10/27 12:55:24;;;;;;;5.20;2.95;;;14.20;91.50;;;;;;5046019;28;20025;-78
2021/10/27 12:57:53;;;;;;;6.22;2.75;;;14.40;91.30;;;;;;5046028;28;20028;-78
2021/10/27 13:01:14;;;;;;;12.85;3.55;;;14.40;91.00;;;;;;5027767;28;20629;-78
2021/10/27 13:05:47;;;;;;;45.22;8.73;;;14.40;91.30;;;;;;5045873;28;20395;-79
2021/10/27 13:11:19;;;;;;;94.80;15.40;;;14.40;91.40;;;;;;5045185;28;20068;-78
2021/10/27 13:14:08;;;;;;;93.72;14.27;;;14.40;91.20;;;;;;5045878;28;20115;-78
2021/10/27 13:22:15;;;;;;;6.55;2.28;;;14.60;90.90;;;;;;5045118;28;20488;-78
2021/10/27 13:30:08;;;;;;;5.72;2.58;;;14.80;90.40;;;;;;5044844;28;20036;-79
2021/10/27 13:32:42;;;;;;;9.70;2.70;;;15.00;90.70;;;;;;5045591;28;20078;-78
2021/10/27 13:35:08;;;;;;;5.80;2.42;;;14.80;90.60;;;;;;5046331;28;20625;-78
2021/10/27 13:37:35;;;;;;;4.53;2.15;;;14.60;90.70;;;;;;5024259;28;20102;-78
2021/10/27 13:40:01;;;;;;;7.88;2.45;;;14.60;90.70;;;;;;5024241;28;20040;-78
2021/10/27 13:45:34;;;;;;;6.47;2.58;;;14.90;90.80;;;;;;5043771;28;20107;-78
2021/10/27 14:07:06;;;;;;;4.45;2.20;;;14.90;90.80;;;;;;5044857;28;20078;-79
2021/10/27 14:09:38;;;;;;;6.75;1.98;;;14.90;91.00;;;;;;5044271;28;20068;-79
2021/10/27 14:22:03;;;;;;;5.43;1.73;;;14.80;90.90;;;;;;5044733;28;20678;-78
2021/10/27 15:19:47;;;;;;;5.07;1.40;;;14.00;90.80;;;;;;5043478;28;20132;-78
2021/10/27 15:22:33;;;;;;;2.40;1.13;;;13.90;90.90;;;;;;5043334;28;20105;-78
2021/10/27 15:32:40;;;;;;;5.10;1.35;;;13.50;91.00;;;;;;5043636;28;20163;-78
2021/10/27 15:51:58;;;;;;;4.00;1.08;;;12.60;91.80;;;;;;5044845;28;20099;-78
2021/10/27 15:54:24;;;;;;;3.65;1.38;;;12.50;91.70;;;;;;5044779;28;20028;-78
2021/10/27 15:56:50;;;;;;;6.18;1.70;;;12.40;91.80;;;;;;5045227;28;20028;-79
2021/10/27 15:59:17;;;;;;;4.60;2.22;;;12.30;91.80;;;;;;5046010;28;20021;-78
2021/10/27 16:01:44;;;;;;;3.33;1.63;;;12.30;92.10;;;;;;5046804;28;20037;-79
2021/10/27 16:04:10;;;;;;;6.20;1.90;;;12.10;92.20;;;;;;5044344;28;20096;-79
2021/10/27 16:06:42;;;;;;;8.10;2.65;;;12.10;92.60;;;;;;5043298;28;20087;-78
2021/10/27 16:09:09;;;;;;;6.15;2.75;;;12.10;92.40;;;;;;5044657;28;20429;-78
2021/10/27 16:11:36;;;;;;;6.35;2.35;;;12.10;92.50;;;;;;5046254;28;20033;-78
2021/10/27 16:14:04;;;;;;;4.45;1.80;;;11.90;92.80;;;;;;5046185;28;20032;-78
2021/10/27 16:16:30;;;;;;;4.38;1.70;;;12.00;92.60;;;;;;5044305;28;20082;-78
2021/10/27 16:18:58;;;;;;;5.45;1.80;;;12.00;92.60;;;;;;5045600;28;20086;-78
2021/10/27 16:21:24;;;;;;;5.30;1.70;;;12.00;92.50;;;;;;5044438;28;20028;-78
2021/10/27 16:23:50;;;;;;;4.25;2.03;;;11.90;92.90;;;;;;5045473;28;20108;-78
2021/10/27 16:26:16;;;;;;;8.35;2.13;;;11.80;92.80;;;;;;5045513;28;20127;-78
2021/10/27 16:28:42;;;;;;;3.47;1.40;;;11.70;92.80;;;;;;5048585;28;20483;-78
2021/10/27 16:31:08;;;;;;;5.25;2.20;;;11.70;92.90;;;;;;5048352;28;20099;-78
2021/10/27 16:33:34;;;;;;;4.07;1.70;;;11.70;93.20;;;;;;5049316;28;20075;-78
2021/10/27 16:36:00;;;;;;;5.40;2.25;;;11.70;93.60;;;;;;5049791;28;20053;-78
2021/10/27 16:38:26;;;;;;;4.63;1.98;;;11.50;93.90;;;;;;5048891;28;20025;-78
2021/10/27 16:40:52;;;;;;;3.67;1.63;;;11.40;93.70;;;;;;5046636;28;20025;-78
2021/10/27 16:43:19;;;;;;;3.78;1.85;;;11.50;93.80;;;;;;5048869;28;20075;-81
2021/10/27 16:45:45;;;;;;;3.25;1.48;;;11.50;93.50;;;;;;5050196;28;20033;-82
2021/10/27 16:48:11;;;;;;;4.60;1.98;;;11.40;93.50;;;;;;5049200;28;20025;-79
2021/10/27 16:50:37;;;;;;;4.28;2.15;;;11.40;93.80;;;;;;5048945;28;20502;-78
2021/10/27 16:53:03;;;;;;;4.70;2.35;;;11.30;94.00;;;;;;5048668;28;20795;-78
2021/10/27 16:55:29;;;;;;;4.15;2.50;;;11.30;94.00;;;;;;5049294;28;20029;-77
2021/10/27 16:57:57;;;;;;;4.25;2.17;;;11.30;94.20;;;;;;5048720;28;20021;-79
2021/10/27 17:00:27;;;;;;;4.60;2.42;;;11.20;94.30;;;;;;5048740;28;20025;-78
2021/10/27 17:02:53;;;;;;;4.25;2.20;;;11.10;94.40;;;;;;5042966;28;20083;-80
2021/10/27 17:05:19;;;;;;;5.18;2.00;;;11.10;94.40;;;;;;5036955;28;20030;-78
2021/10/27 17:07:44;;;;;;;4.93;2.47;;;11.10;94.20;;;;;;5043131;28;20364;-78
2021/10/27 17:10:12;;;;;;;3.28;1.73;;;11.10;94.30;;;;;;5039390;28;20076;-78
2021/10/27 17:12:39;;;;;;;4.97;2.60;;;11.20;94.30;;;;;;5047831;28;20036;-78
2021/10/27 17:15:07;;;;;;;6.35;2.58;;;11.10;94.50;;;;;;5047055;28;20407;-78
2021/10/27 17:17:33;;;;;;;4.00;1.95;;;11.00;94.50;;;;;;5046909;28;20417;-78
2021/10/27 17:20:00;;;;;;;5.05;1.92;;;11.00;94.80;;;;;;5045582;28;20029;-78
2021/10/27 17:22:28;;;;;;;5.38;2.63;;;10.90;94.80;;;;;;5046912;28;20395;-78
2021/10/27 17:24:54;;;;;;;8.27;2.63;;;10.90;94.60;;;;;;5048356;28;20020;-78
2021/10/27 17:27:21;;;;;;;3.58;1.83;;;11.00;94.40;;;;;;5043016;28;20043;-78
2021/10/27 17:29:48;;;;;;;4.88;2.42;;;10.90;94.50;;;;;;5045736;28;20052;-79
2021/10/27 17:32:13;;;;;;;4.18;2.10;;;10.90;94.60;;;;;;5048088;28;20036;-78
2021/10/27 17:34:40;;;;;;;5.88;2.40;;;10.90;94.70;;;;;;5045099;28;20016;-81
2021/10/27 17:37:06;;;;;;;3.88;1.83;;;10.80;94.70;;;;;;5048941;28;20079;-77